Time;durP1;ratioP1;P1;durP2;ratioP2;P2;SDS_P1;SDS_P2;PMS_P1;PMS_P2;Temp;Humidity;BMP_temperature;BMP_pressure;BME280_temperature;BME280_humidity;BME280_pressure;Samples;Min_cycle;Max_cycle;Signal;HPM_P1;HPM_P2
2022/04/19 00:01:17;;;;;;;15.43;9.18;;;;;;;11.62;74.40;100999.00;4976669;28;20047;-60
2022/04/19 00:03:44;;;;;;;17.90;8.55;;;;;;;11.41;75.31;101008.91;4977010;28;20055;-59
2022/04/19 00:06:12;;;;;;;14.77;9.00;;;;;;;11.34;75.80;101004.66;4955588;28;20050;-60
2022/04/19 00:08:39;;;;;;;16.85;8.75;;;;;;;11.35;75.98;100995.22;4960317;28;20469;-60
2022/04/19 00:11:07;;;;;;;20.20;9.60;;;;;;;11.54;75.18;100997.00;4945306;28;20047;-59
2022/04/19 00:13:34;;;;;;;16.38;9.27;;;;;;;11.67;75.08;101001.66;4966081;28;20078;-61
2022/04/19 00:16:02;;;;;;;18.50;9.00;;;;;;;11.59;75.08;101000.47;4956793;28;20052;-60
2022/04/19 00:18:29;;;;;;;16.05;8.70;;;;;;;11.61;74.88;100997.41;4976545;28;20062;-60
2022/04/19 00:20:56;;;;;;;20.10;10.18;;;;;;;11.26;76.16;100994.34;4958267;28;20058;-61
2022/04/19 00:23:24;;;;;;;20.15;10.02;;;;;;;11.44;75.98;100997.25;4962784;28;20509;-60
2022/04/19 00:25:54;;;;;;;19.33;9.57;;;;;;;11.40;75.75;100993.50;4966144;28;20050;-60
2022/04/19 00:28:22;;;;;;;18.73;9.50;;;;;;;11.37;75.54;100985.84;4975208;28;20062;-60
2022/04/19 00:30:55;;;;;;;17.73;9.30;;;;;;;11.22;75.62;100992.53;4976137;28;20399;-61
2022/04/19 00:33:23;;;;;;;20.60;9.60;;;;;;;11.18;75.84;100995.09;4963342;28;20050;-60
2022/04/19 00:35:50;;;;;;;17.08;9.20;;;;;;;11.44;75.06;100991.75;4947018;28;20047;-59
2022/04/19 00:38:17;;;;;;;15.88;9.07;;;;;;;11.38;74.81;100991.84;4963281;28;20047;-59
2022/04/19 00:40:45;;;;;;;17.63;9.50;;;;;;;11.42;74.34;100994.00;4968173;28;20050;-60
2022/04/19 00:43:12;;;;;;;15.88;9.20;;;;;;;11.06;74.97;100994.81;4960738;28;20065;-60
2022/04/19 00:45:40;;;;;;;15.63;8.73;;;;;;;11.20;74.62;100992.84;4980627;28;20055;-59
2022/04/19 00:48:07;;;;;;;13.73;7.85;;;;;;;11.11;75.03;100994.69;4975339;28;20058;-58
2022/04/19 00:50:37;;;;;;;14.75;8.32;;;;;;;11.06;74.59;100985.72;4939156;29;20055;-61
2022/04/19 00:53:05;;;;;;;14.05;8.23;;;;;;;11.16;74.14;100991.00;4947667;28;20054;-59
2022/04/19 00:55:33;;;;;;;15.30;8.18;;;;;;;11.25;73.12;100986.38;4981223;28;20061;-60
2022/04/19 00:58:00;;;;;;;13.50;7.20;;;;;;;11.08;73.25;100987.06;4943720;28;20055;-61
2022/04/19 01:00:29;;;;;;;18.02;7.85;;;;;;;11.20;72.36;100983.75;4967987;28;20058;-64
2022/04/19 01:03:08;;;;;;;15.75;8.27;;;;;;;10.70;73.92;100988.44;4962843;28;20061;-61
2022/04/19 01:05:37;;;;;;;19.63;8.02;;;;;;;10.88;73.04;100981.19;4953284;28;20058;-62
2022/04/19 01:08:08;;;;;;;14.60;7.68;;;;;;;10.73;72.72;100982.31;4966931;28;20058;-62
2022/04/19 01:10:37;;;;;;;15.88;7.53;;;;;;;10.94;72.33;100980.75;4957999;28;20485;-61
2022/04/19 01:13:17;;;;;;;10.68;6.45;;;;;;;10.83;71.63;100978.50;4941964;28;20059;-61
2022/04/19 01:15:52;;;;;;;15.18;6.70;;;;;;;10.60;71.39;100980.38;4963694;28;20497;-61
2022/04/19 01:18:22;;;;;;;15.73;5.95;;;;;;;10.48;71.47;100985.59;4953382;28;20058;-60
2022/04/19 01:20:52;;;;;;;13.63;6.18;;;;;;;10.80;70.08;100977.22;4957200;28;20046;-61
2022/04/19 01:23:22;;;;;;;11.00;5.50;;;;;;;10.48;70.00;100977.31;4958058;28;20058;-60
2022/04/19 01:25:50;;;;;;;12.07;5.82;;;;;;;10.39;70.36;100981.09;4958729;28;20168;-59
2022/04/19 01:28:19;;;;;;;12.98;5.28;;;;;;;10.72;69.54;100974.38;4957929;28;20051;-60
2022/04/19 01:30:52;;;;;;;9.45;5.40;;;;;;;10.51;69.36;100978.66;4973717;28;20105;-61
2022/04/19 01:33:21;;;;;;;9.63;5.32;;;;;;;10.12;70.11;100970.88;4942365;28;20066;-59
2022/04/19 01:35:49;;;;;;;10.07;4.57;;;;;;;10.26;69.73;100970.91;4958597;28;20042;-61
2022/04/19 01:38:17;;;;;;;8.93;4.85;;;;;;;10.26;68.88;100982.72;4958035;28;20059;-65
2022/04/19 01:40:45;;;;;;;12.23;5.25;;;;;;;10.03;69.60;100975.44;4957552;28;20058;-65
2022/04/19 01:43:25;;;;;;;9.18;4.57;;;;;;;9.99;69.87;100974.38;4973880;28;20054;-65
2022/04/19 01:45:57;;;;;;;11.85;4.60;;;;;;;10.12;69.13;100971.72;4957580;28;20063;-65
2022/04/19 01:48:26;;;;;;;10.45;4.50;;;;;;;10.04;69.27;100971.56;4957951;28;20059;-65
2022/04/19 01:50:53;;;;;;;10.98;4.82;;;;;;;10.12;69.00;100966.22;4965194;28;20819;-65
2022/04/19 01:53:21;;;;;;;13.38;4.75;;;;;;;10.06;68.81;100967.38;4971751;28;20047;-66
2022/04/19 01:55:49;;;;;;;12.00;4.78;;;;;;;10.08;68.80;100969.81;4959744;28;20057;-65
2022/04/19 01:58:35;;;;;;;12.00;4.20;;;;;;;9.93;68.54;100970.94;4975219;28;20051;-64
2022/04/19 02:01:06;;;;;;;9.45;4.18;;;;;;;9.93;68.72;100973.69;4957123;28;20062;-64
2022/04/19 02:03:35;;;;;;;8.43;4.45;;;;;;;9.90;68.68;100968.78;4944802;28;20061;-65
2022/04/19 02:06:11;;;;;;;7.72;3.70;;;;;;;10.01;68.40;100972.97;4959545;28;20062;-64
2022/04/19 02:08:39;;;;;;;10.93;4.00;;;;;;;9.96;67.96;100967.56;4939150;29;20470;-64
2022/04/19 02:11:13;;;;;;;8.30;4.10;;;;;;;10.00;68.15;100965.03;4942081;28;20486;-64
2022/04/19 02:13:41;;;;;;;8.93;4.13;;;;;;;10.26;66.91;100970.91;4957638;28;20054;-65
2022/04/19 02:16:14;;;;;;;8.38;4.22;;;;;;;9.86;67.93;100976.03;4940104;28;20050;-65
2022/04/19 02:18:42;;;;;;;8.43;4.13;;;;;;;9.62;68.43;100982.78;4954510;29;20059;-65
2022/04/19 02:21:10;;;;;;;10.88;4.10;;;;;;;9.76;68.05;100965.16;4948214;28;20050;-64
2022/04/19 02:23:37;;;;;;;7.85;3.60;;;;;;;9.86;67.59;100977.94;4974811;28;20050;-65
2022/04/19 02:26:04;;;;;;;9.15;3.95;;;;;;;9.50;68.77;100974.19;4974587;28;20046;-65
2022/04/19 02:28:32;;;;;;;9.20;3.97;;;;;;;9.44;68.98;100973.44;4975922;28;20059;-64
2022/04/19 02:31:08;;;;;;;9.20;3.95;;;;;;;9.43;68.83;100973.75;4945149;28;20076;-63
2022/04/19 02:33:37;;;;;;;10.05;3.97;;;;;;;9.41;68.40;100975.97;4975848;28;20055;-64
2022/04/19 02:36:05;;;;;;;9.82;4.57;;;;;;;9.31;68.76;100965.13;4988883;28;20065;-64
2022/04/19 02:38:35;;;;;;;17.90;3.88;;;;;;;9.29;68.23;100961.88;4977041;28;20066;-63
2022/04/19 02:41:05;;;;;;;9.70;3.78;;;;;;;9.20;68.62;100958.16;4962106;28;20054;-64
2022/04/19 02:43:33;;;;;;;14.40;4.40;;;;;;;9.39;68.16;100956.19;4961335;28;20060;-64
2022/04/19 02:46:01;;;;;;;10.35;3.95;;;;;;;9.70;67.14;100960.88;4960770;28;20105;-64
2022/04/19 02:48:34;;;;;;;8.60;3.35;;;;;;;9.89;66.45;100960.81;4968582;28;20051;-65
2022/04/19 02:51:02;;;;;;;9.98;3.72;;;;;;;9.55;67.22;100965.84;4968763;28;20521;-64
2022/04/19 02:53:29;;;;;;;10.65;3.65;;;;;;;9.39;67.84;100970.78;4966537;28;20512;-64
2022/04/19 02:55:57;;;;;;;11.10;3.47;;;;;;;9.37;67.41;100961.19;4983423;28;20502;-63
2022/04/19 02:58:25;;;;;;;12.68;3.83;;;;;;;9.35;68.31;100955.97;4977872;28;20055;-64
2022/04/19 03:00:55;;;;;;;11.48;4.15;;;;;;;9.56;67.45;100954.53;4975837;28;20054;-63
2022/04/19 03:03:22;;;;;;;8.57;3.58;;;;;;;9.38;67.61;100960.06;4975762;28;20051;-64
2022/04/19 03:05:52;;;;;;;11.90;3.38;;;;;;;9.44;67.31;100953.38;4960702;28;20050;-65
2022/04/19 03:08:20;;;;;;;10.35;3.75;;;;;;;9.30;67.88;100947.00;4976188;28;20043;-65
2022/04/19 03:10:49;;;;;;;10.23;3.38;;;;;;;9.46;67.37;100948.38;4960141;28;20058;-63
2022/04/19 03:13:17;;;;;;;11.00;3.60;;;;;;;9.45;67.46;100950.31;4960103;28;20447;-63
2022/04/19 03:15:44;;;;;;;9.98;3.25;;;;;;;9.53;67.01;100948.81;4958672;28;20298;-63
2022/04/19 03:18:12;;;;;;;10.07;3.15;;;;;;;9.27;67.87;100953.09;4965680;28;20042;-65
2022/04/19 03:20:41;;;;;;;9.63;3.70;;;;;;;9.28;68.60;100940.97;4975879;28;20058;-65
2022/04/19 03:28:47;;;;;;;13.45;3.30;;;;;;;9.82;67.20;100952.16;4946410;28;20066;-64
2022/04/19 03:31:15;;;;;;;11.23;4.15;;;;;;;10.03;66.36;100948.72;4972683;28;20053;-64
2022/04/19 03:33:43;;;;;;;10.80;3.40;;;;;;;9.44;68.16;100947.88;4959103;28;20063;-64
2022/04/19 03:36:11;;;;;;;12.68;4.38;;;;;;;9.41;69.31;100946.56;4975628;28;20042;-64
2022/04/19 03:38:38;;;;;;;14.85;4.10;;;;;;;9.47;68.84;100942.59;4977443;28;20562;-64
2022/04/19 03:41:06;;;;;;;9.77;3.60;;;;;;;9.16;70.05;100938.69;4975898;28;20054;-64
2022/04/19 03:43:34;;;;;;;9.82;3.42;;;;;;;9.11;70.57;100938.78;4959737;28;20069;-64
2022/04/19 03:46:01;;;;;;;11.52;3.65;;;;;;;8.99;71.25;100942.00;4958274;28;20046;-64
2022/04/19 03:48:30;;;;;;;8.30;3.40;;;;;;;9.13;71.65;100936.56;4938000;28;20042;-64
2022/04/19 03:50:57;;;;;;;12.32;3.85;;;;;;;9.07;71.40;100935.81;4940331;28;20058;-63
2022/04/19 03:53:25;;;;;;;9.77;4.10;;;;;;;8.94;72.54;100935.75;4966687;28;20059;-64
2022/04/19 03:55:52;;;;;;;9.93;3.70;;;;;;;9.11;71.50;100938.78;4956579;28;20059;-63
2022/04/19 03:58:19;;;;;;;11.02;4.10;;;;;;;8.82;73.10;100933.44;4959434;28;20047;-64
2022/04/19 04:00:47;;;;;;;12.85;4.03;;;;;;;8.82;73.14;100925.19;4962043;28;20042;-64
2022/04/19 04:03:14;;;;;;;15.38;4.18;;;;;;;8.85;73.06;100929.28;4959607;28;20051;-65
2022/04/19 04:05:42;;;;;;;10.95;3.72;;;;;;;8.80;73.42;100932.91;4956476;28;20051;-64
2022/04/19 04:08:09;;;;;;;13.70;3.75;;;;;;;8.97;72.99;100933.22;4959380;28;20050;-66
2022/04/19 04:10:44;;;;;;;11.85;3.80;;;;;;;9.17;72.26;100934.81;4957708;28;20509;-64
2022/04/19 04:13:12;;;;;;;13.95;4.22;;;;;;;9.28;71.92;100936.31;4975214;28;20645;-64
2022/04/19 04:15:40;;;;;;;11.88;3.55;;;;;;;9.57;70.99;100936.09;4960826;28;20139;-64
2022/04/19 04:18:09;;;;;;;14.07;3.58;;;;;;;9.18;71.79;100933.72;4946327;28;20051;-65
2022/04/19 04:20:36;;;;;;;11.32;3.42;;;;;;;9.24;72.18;100931.72;4959312;28;20062;-64
2022/04/19 04:23:04;;;;;;;12.18;4.00;;;;;;;9.35;71.98;100933.16;4959059;28;20069;-64
2022/04/19 04:25:32;;;;;;;15.15;4.07;;;;;;;9.12;72.38;100931.38;4967915;28;20399;-65
2022/04/19 04:27:59;;;;;;;12.48;3.40;;;;;;;9.27;72.53;100923.69;4959006;28;20043;-65
2022/04/19 04:30:35;;;;;;;13.93;3.42;;;;;;;9.40;71.54;100928.41;4966173;28;20054;-64
2022/04/19 04:33:03;;;;;;;16.75;3.17;;;;;;;9.53;71.31;100933.16;4958551;28;20066;-65
2022/04/19 04:35:31;;;;;;;11.48;3.95;;;;;;;9.46;71.42;100929.16;4966556;28;20054;-65
2022/04/19 04:37:58;;;;;;;10.85;3.50;;;;;;;9.41;71.61;100930.06;4958715;28;20042;-64
2022/04/19 04:40:27;;;;;;;11.88;3.13;;;;;;;9.39;71.74;100931.47;4974285;28;20054;-65
2022/04/19 04:43:06;;;;;;;12.77;3.40;;;;;;;9.50;71.74;100941.97;4961144;28;20348;-65
2022/04/19 04:45:33;;;;;;;13.63;3.42;;;;;;;9.46;71.94;100934.63;4956783;28;20051;-65
2022/04/19 04:50:46;;;;;;;15.70;3.92;;;;;;;9.34;72.43;100945.28;4962445;28;20050;-65
2022/04/19 04:53:13;;;;;;;16.55;3.63;;;;;;;9.41;72.75;100952.06;4950710;28;20050;-64
2022/04/19 04:55:51;;;;;;;16.85;3.60;;;;;;;9.16;73.27;100946.94;4959156;28;20046;-63
2022/04/19 04:58:26;;;;;;;18.27;3.80;;;;;;;9.01;73.90;100950.72;4958401;28;20054;-64
2022/04/19 05:00:53;;;;;;;18.40;3.83;;;;;;;9.10;74.43;100957.19;4968250;28;20876;-64
2022/04/19 05:03:23;;;;;;;;;;;;;;;9.31;73.56;100948.66;4969619;28;20061;-64
2022/04/19 05:05:50;;;;;;;13.27;3.47;;;;;;;9.50;73.20;100957.69;4966347;28;19922;-64
2022/04/19 05:08:18;;;;;;;13.05;3.65;;;;;;;9.30;73.51;100958.00;4955164;29;20051;-64
2022/04/19 05:10:46;;;;;;;13.52;3.40;;;;;;;9.08;74.49;100955.88;4954924;28;20058;-66
2022/04/19 05:13:19;;;;;;;18.45;4.65;;;;;;;8.97;75.54;100955.19;4946231;28;20054;-64
2022/04/19 05:15:46;;;;;;;13.07;3.40;;;;;;;9.03;75.07;100969.69;4976841;28;20050;-64
2022/04/19 05:18:17;;;;;;;15.48;3.50;;;;;;;8.84;75.88;100957.84;4958174;28;20474;-65
2022/04/19 05:20:47;;;;;;;13.02;3.53;;;;;;;8.98;75.90;100959.56;4969477;28;20047;-67
2022/04/19 05:23:14;;;;;;;13.82;4.10;;;;;;;8.94;76.85;100957.72;4957738;28;20047;-66
2022/04/19 05:25:41;;;;;;;12.75;3.80;;;;;;;8.69;77.96;100969.03;4956086;28;20781;-66
2022/04/19 05:28:09;;;;;;;19.65;4.10;;;;;;;8.61;79.04;100959.53;4973520;28;20035;-64
2022/04/19 05:30:36;;;;;;;16.88;4.45;;;;;;;8.61;79.67;100967.75;4971011;28;20055;-65
2022/04/19 05:33:04;;;;;;;23.88;4.30;;;;;;;8.56;80.43;100967.03;4971771;28;20057;-65
2022/04/19 05:35:34;;;;;;;15.18;3.92;;;;;;;8.52;80.66;100963.25;4962357;28;20047;-66
2022/04/19 05:38:02;;;;;;;19.85;4.30;;;;;;;8.64;81.15;100958.97;4966958;28;20043;-64
2022/04/19 05:40:32;;;;;;;16.15;4.30;;;;;;;8.73;80.67;100959.94;4951975;28;20158;-65
2022/04/19 05:43:01;;;;;;;16.95;4.20;;;;;;;8.75;80.47;100963.19;4960997;28;20078;-65
2022/04/19 05:45:29;;;;;;;14.70;5.00;;;;;;;8.96;80.31;100964.53;4957495;28;20054;-64
2022/04/19 05:47:56;;;;;;;18.92;3.83;;;;;;;8.94;80.13;100961.25;4974313;28;20375;-64
2022/04/19 05:50:26;;;;;;;20.05;4.88;;;;;;;9.11;79.61;100974.50;4941697;28;20059;-64
2022/04/19 05:52:53;;;;;;;19.35;4.78;;;;;;;9.15;79.04;100961.81;4959039;28;20086;-64
2022/04/19 05:55:21;;;;;;;20.77;4.45;;;;;;;9.21;79.47;100951.53;4974804;28;20059;-64
2022/04/19 05:57:48;;;;;;;15.18;4.18;;;;;;;9.05;79.77;100962.75;4960881;28;20047;-64
2022/04/19 06:00:16;;;;;;;19.02;4.63;;;;;;;9.02;80.26;100957.88;4948689;28;20149;-64
2022/04/19 06:05:36;;;;;;;24.45;5.07;;;;;;;8.86;81.08;100959.19;4947849;28;20501;-60
2022/04/19 06:08:04;;;;;;;13.57;4.68;;;;;;;8.98;80.88;100962.31;4960985;28;20414;-58
2022/04/19 06:10:31;;;;;;;17.15;5.03;;;;;;;9.00;81.07;100957.34;4969409;28;20387;-60
2022/04/19 06:12:59;;;;;;;17.95;4.88;;;;;;;9.30;80.41;100958.81;4973918;28;20058;-61
2022/04/19 06:15:26;;;;;;;18.90;5.43;;;;;;;9.36;79.23;100963.13;4944907;28;20517;-61
2022/04/19 06:17:54;;;;;;;23.42;5.22;;;;;;;9.38;79.52;100960.88;4964160;28;20058;-60
2022/04/19 06:20:37;;;;;;;19.25;4.75;;;;;;;9.00;80.69;100962.84;4983224;28;20058;-60
2022/04/19 06:23:04;;;;;;;22.05;5.72;;;;;;;8.94;81.34;100961.25;4959454;28;20061;-60
2022/04/19 06:25:32;;;;;;;21.92;5.05;;;;;;;9.16;80.73;100963.44;4957532;28;20050;-58
2022/04/19 06:27:59;;;;;;;22.17;5.55;;;;;;;9.26;80.13;100962.47;4956283;29;20077;-58
2022/04/19 06:30:33;;;;;;;24.35;5.00;;;;;;;8.98;81.50;100969.72;4970021;28;20482;-61
2022/04/19 06:33:01;;;;;;;19.45;5.43;;;;;;;8.93;82.27;100972.56;4959528;28;20417;-60
2022/04/19 06:35:28;;;;;;;21.05;5.50;;;;;;;8.84;82.79;100966.09;4962643;28;20055;-60
2022/04/19 06:37:56;;;;;;;20.95;5.38;;;;;;;8.94;81.93;100966.75;4961644;28;20062;-62
2022/04/19 06:40:23;;;;;;;22.73;6.00;;;;;;;8.98;82.45;100972.47;4958024;28;20067;-59
2022/04/19 06:42:50;;;;;;;22.13;6.22;;;;;;;9.27;81.89;100966.84;4973421;28;20043;-61
2022/04/19 06:45:18;;;;;;;16.80;5.88;;;;;;;8.92;81.71;100958.03;4952228;29;20055;-61
2022/04/19 06:48:02;;;;;;;18.08;5.72;;;;;;;8.90;82.46;100960.25;4954349;29;20047;-59
2022/04/19 06:50:35;;;;;;;22.70;6.50;;;;;;;8.95;83.26;100951.09;4908678;29;20576;-59
2022/04/19 06:53:08;;;;;;;21.85;5.65;;;;;;;9.42;81.23;100961.09;4943283;29;20047;-59
2022/04/19 06:55:54;;;;;;;24.23;6.43;;;;;;;9.47;80.59;100950.84;4946825;28;20062;-62
2022/04/19 06:58:21;;;;;;;21.02;6.30;;;;;;;9.97;78.98;100960.16;4938680;28;20054;-60
2022/04/19 07:00:50;;;;;;;17.23;5.22;;;;;;;9.62;77.59;100955.28;4934328;29;20058;-59
2022/04/19 07:03:18;;;;;;;23.00;6.22;;;;;;;9.69;78.41;100955.69;4939039;29;20047;-61
2022/04/19 07:06:05;;;;;;;19.15;6.03;;;;;;;9.81;78.39;100962.34;4955991;29;20639;-59
2022/04/19 07:08:33;;;;;;;23.17;6.38;;;;;;;9.79;77.85;100963.75;4940584;29;20058;-59
2022/04/19 07:11:00;;;;;;;28.58;5.85;;;;;;;9.91;78.06;100955.84;4937490;29;20639;-60
2022/04/19 07:13:46;;;;;;;22.75;6.53;;;;;;;10.07;77.34;100946.19;4942469;29;20050;-59
2022/04/19 07:16:39;;;;;;;27.30;6.57;;;;;;;10.21;76.63;100947.03;4957860;28;20131;-60
2022/04/19 07:19:07;;;;;;;24.02;6.45;;;;;;;10.36;75.98;100946.72;4931205;29;20035;-62
2022/04/19 07:27:42;;;;;;;24.90;5.95;;;;;;;10.99;74.32;100947.56;4947329;29;20070;-61
2022/04/19 07:30:10;;;;;;;22.08;7.28;;;;;;;10.82;73.21;100950.16;4937376;29;20355;-64
2022/04/19 07:32:38;;;;;;;19.75;6.40;;;;;;;10.68;73.04;100954.06;4919653;29;20051;-60
2022/04/19 07:35:21;;;;;;;17.48;6.65;;;;;;;10.73;73.08;100951.19;4936963;29;20055;-60
2022/04/19 07:37:49;;;;;;;20.40;7.50;;;;;;;10.50;73.42;100958.56;4954099;28;20062;-63
2022/04/19 07:40:16;;;;;;;18.75;7.65;;;;;;;10.55;73.75;100950.19;4938713;29;20043;-62
2022/04/19 07:42:43;;;;;;;25.27;7.70;;;;;;;10.42;73.43;100955.72;4945856;29;20051;-59
2022/04/19 07:45:11;;;;;;;19.50;8.63;;;;;;;10.40;74.26;100957.94;4970920;28;20062;-61
2022/04/19 07:47:41;;;;;;;23.58;8.27;;;;;;;10.36;73.35;100965.19;4958124;28;20414;-61
2022/04/19 07:50:08;;;;;;;20.23;8.10;;;;;;;10.28;73.80;100963.97;4974999;28;20043;-58
2022/04/19 07:52:36;;;;;;;22.55;8.85;;;;;;;10.51;73.54;100960.22;4953939;28;20411;-59
2022/04/19 07:55:03;;;;;;;24.40;8.23;;;;;;;10.83;71.86;100948.19;4952856;28;20043;-62
2022/04/19 07:57:31;;;;;;;17.15;7.10;;;;;;;11.09;71.77;100943.75;4969506;28;20521;-61
2022/04/19 07:59:59;;;;;;;18.35;8.38;;;;;;;10.69;70.98;100944.66;4959026;28;20395;-60
2022/04/19 08:02:35;;;;;;;24.42;8.68;;;;;;;10.82;71.03;100936.38;4969032;28;20043;-60
2022/04/19 08:05:03;;;;;;;21.60;9.25;;;;;;;10.81;69.63;100945.75;4955392;28;20059;-64
2022/04/19 08:07:31;;;;;;;25.70;8.57;;;;;;;10.86;70.16;100942.09;4956355;28;20051;-60
2022/04/19 08:09:59;;;;;;;20.75;8.20;;;;;;;11.02;68.99;100941.41;4973710;28;20051;-63
2022/04/19 08:12:26;;;;;;;20.55;7.90;;;;;;;10.88;68.03;100946.16;4954428;28;20058;-65
2022/04/19 08:14:55;;;;;;;24.45;9.35;;;;;;;11.06;68.03;100947.13;4963769;28;20042;-61
2022/04/19 08:17:23;;;;;;;18.48;8.23;;;;;;;11.08;68.25;100945.72;4956390;28;20054;-60
2022/04/19 08:19:50;;;;;;;24.33;9.45;;;;;;;11.04;67.78;100941.09;4959227;28;20057;-64
2022/04/19 08:22:18;;;;;;;22.05;7.82;;;;;;;11.00;68.09;100940.13;4956978;28;20046;-63
2022/04/19 08:24:55;;;;;;;23.38;7.30;;;;;;;11.16;66.77;100950.47;4953108;28;20065;-58
2022/04/19 08:27:23;;;;;;;19.67;7.38;;;;;;;11.16;66.27;100949.63;4972329;28;20114;-59
2022/04/19 08:29:51;;;;;;;18.67;7.30;;;;;;;11.36;66.32;100943.66;4963110;28;20050;-60
2022/04/19 08:32:18;;;;;;;16.27;6.53;;;;;;;11.41;63.50;100949.03;4952810;28;20075;-60
2022/04/19 08:34:46;;;;;;;14.60;5.30;;;;;;;11.40;62.55;100936.41;4957595;28;20047;-59
2022/04/19 08:37:13;;;;;;;17.75;5.85;;;;;;;11.58;62.45;100940.88;4973150;28;20052;-59
2022/04/19 08:39:41;;;;;;;18.95;7.13;;;;;;;11.93;62.79;100940.00;4965433;28;20065;-61
2022/04/19 08:42:08;;;;;;;19.70;7.03;;;;;;;12.09;63.35;100938.47;4942239;28;20034;-60
2022/04/19 08:44:36;;;;;;;15.35;6.18;;;;;;;12.18;62.52;100933.78;4938592;28;20395;-62
2022/04/19 08:47:07;;;;;;;20.80;6.88;;;;;;;12.29;62.70;100937.09;4976321;28;20553;-61
2022/04/19 08:49:41;;;;;;;23.33;8.68;;;;;;;12.70;61.83;100942.22;4975099;28;20055;-64
2022/04/19 08:52:09;;;;;;;18.20;7.00;;;;;;;12.66;61.00;100939.28;4975759;28;20391;-64
2022/04/19 08:57:31;;;;;;;19.35;6.60;;;;;;;12.77;60.56;100929.56;4971365;28;20055;-62
2022/04/19 08:59:59;;;;;;;17.23;7.20;;;;;;;12.85;59.36;100933.47;4970560;28;20048;-64
2022/04/19 09:02:29;;;;;;;19.75;7.43;;;;;;;12.45;60.52;100936.31;4948566;28;20402;-62
2022/04/19 09:05:13;;;;;;;;;;;;;;;12.64;59.98;100933.25;4974852;28;20054;-61
2022/04/19 09:07:41;;;;;;;15.15;5.88;;;;;;;12.59;59.04;100930.66;4937398;29;19922;-59
2022/04/19 09:10:14;;;;;;;18.15;6.38;;;;;;;12.75;58.65;100914.44;4971711;28;20046;-60
2022/04/19 09:12:55;;;;;;;16.95;6.00;;;;;;;12.91;57.99;100921.94;4967066;28;20054;-60
2022/04/19 09:15:22;;;;;;;17.25;5.97;;;;;;;13.12;58.04;100919.38;4945003;29;20065;-61
2022/04/19 09:17:50;;;;;;;14.25;6.18;;;;;;;13.46;57.71;100909.09;4964889;28;20050;-60
2022/04/19 09:20:19;;;;;;;16.95;6.07;;;;;;;13.87;57.18;100910.47;4963804;28;20051;-62
2022/04/19 09:22:50;;;;;;;17.48;6.22;;;;;;;14.27;56.82;100909.03;4974214;28;20074;-61
2022/04/19 09:25:25;;;;;;;15.40;6.13;;;;;;;14.06;56.08;100910.88;4958744;28;20066;-59
2022/04/19 09:27:54;;;;;;;18.63;6.60;;;;;;;14.31;55.20;100904.47;4970576;28;20148;-60
2022/04/19 09:30:35;;;;;;;21.02;6.60;;;;;;;14.11;55.39;100905.16;4973289;28;20047;-63
2022/04/19 09:33:09;;;;;;;21.13;6.82;;;;;;;14.40;55.04;100910.78;4972771;28;20364;-60
2022/04/19 09:35:50;;;;;;;20.08;6.65;;;;;;;14.16;54.37;100900.25;4973434;28;20061;-59
2022/04/19 09:38:18;;;;;;;11.88;6.32;;;;;;;13.30;55.48;100899.66;4972360;28;20612;-59
2022/04/19 09:40:47;;;;;;;18.42;7.30;;;;;;;13.52;56.42;100904.22;4958883;28;20043;-60
2022/04/19 09:43:35;;;;;;;17.20;7.18;;;;;;;13.39;55.79;100891.34;4968391;28;20386;-60
2022/04/19 09:46:03;;;;;;;16.67;7.18;;;;;;;13.45;55.88;100901.94;4959168;28;20051;-62
2022/04/19 09:48:35;;;;;;;15.68;6.80;;;;;;;13.58;55.81;100897.38;4977601;28;20054;-60
2022/04/19 09:51:13;;;;;;;18.02;7.38;;;;;;;14.03;54.33;100900.47;4957517;28;20047;-61
2022/04/19 09:53:41;;;;;;;19.58;7.07;;;;;;;13.99;55.36;100896.75;4944308;28;20058;-60
2022/04/19 09:56:10;;;;;;;16.05;7.07;;;;;;;14.20;54.15;100894.84;4977094;28;20054;-60
2022/04/19 09:58:38;;;;;;;18.40;7.20;;;;;;;14.36;54.15;100896.78;4977188;28;20054;-59
2022/04/19 10:01:06;;;;;;;19.50;7.20;;;;;;;14.16;54.56;100885.56;4955404;28;20652;-59
2022/04/19 10:09:25;;;;;;;18.30;7.13;;;;;;;14.41;54.84;100863.31;4910821;29;20068;-61
2022/04/19 10:11:53;;;;;;;20.48;8.43;;;;;;;14.24;55.29;100871.69;4973604;28;20069;-60
2022/04/19 10:14:21;;;;;;;19.40;8.57;;;;;;;14.50;55.18;100860.50;4958810;28;20119;-59
2022/04/19 10:16:51;;;;;;;15.30;7.57;;;;;;;14.78;55.51;100866.34;4977952;28;20410;-61
2022/04/19 10:19:19;;;;;;;20.63;8.23;;;;;;;14.82;55.40;100857.00;4977190;28;20063;-61
2022/04/19 10:21:47;;;;;;;17.73;7.72;;;;;;;14.64;56.24;100847.97;4976947;28;20054;-62
2022/04/19 10:24:16;;;;;;;22.92;8.73;;;;;;;14.97;55.37;100853.63;4960373;28;20050;-61
2022/04/19 10:26:48;;;;;;;22.75;9.05;;;;;;;14.57;55.92;100852.47;4970649;28;20065;-60
2022/04/19 10:29:16;;;;;;;20.50;8.57;;;;;;;14.89;55.49;100853.69;4977018;28;20055;-62
2022/04/19 10:31:58;;;;;;;16.05;8.52;;;;;;;15.30;55.00;100848.09;4952340;29;20079;-61
2022/04/19 10:34:27;;;;;;;17.58;7.40;;;;;;;15.57;54.17;100851.09;4970730;28;20433;-61
2022/04/19 10:36:57;;;;;;;17.95;8.63;;;;;;;15.38;53.96;100852.72;4968641;28;20057;-61
2022/04/19 10:39:27;;;;;;;18.92;8.00;;;;;;;15.58;54.37;100854.69;4973833;28;20077;-61
2022/04/19 10:42:02;;;;;;;18.60;8.77;;;;;;;16.25;52.75;100838.28;4970545;28;20051;-64
2022/04/19 10:44:52;;;;;;;18.25;8.27;;;;;;;16.49;52.28;100834.72;4979301;28;20065;-64
2022/04/19 10:47:20;;;;;;;22.67;9.38;;;;;;;16.08;52.33;100846.06;4975379;28;20081;-64
2022/04/19 10:50:05;;;;;;;22.60;10.20;;;;;;;15.48;53.72;100838.47;4976987;28;20070;-64
2022/04/19 10:52:43;;;;;;;18.88;9.38;;;;;;;15.72;53.70;100833.78;4975971;28;20062;-65
2022/04/19 10:55:14;;;;;;;20.05;9.35;;;;;;;15.59;53.88;100837.69;4963422;28;20051;-65
2022/04/19 11:01:00;;;;;;;20.13;10.35;;;;;;;15.39;55.02;100830.22;4976453;28;20051;-64
2022/04/19 11:03:33;;;;;;;25.27;11.30;;;;;;;15.32;54.85;100827.19;4950932;28;20055;-64
2022/04/19 11:06:03;;;;;;;24.00;12.30;;;;;;;15.34;54.69;100835.16;4976229;28;20324;-65
2022/04/19 11:08:30;;;;;;;;;;;;;;;15.12;55.38;100832.75;4974000;28;20051;-65
2022/04/19 11:10:58;;;;;;;21.98;11.10;;;;;;;15.37;54.83;100834.47;4975834;28;20396;-64
2022/04/19 11:13:27;;;;;;;24.13;11.43;;;;;;;15.34;54.67;100832.38;4975682;28;20069;-64
2022/04/19 11:16:03;;;;;;;21.17;11.02;;;;;;;15.33;54.65;100825.19;4968660;28;20069;-65
2022/04/19 11:18:38;;;;;;;17.20;10.45;;;;;;;15.73;53.73;100823.47;4975883;28;20050;-65
2022/04/19 11:21:47;;;;;;;22.85;12.02;;;;;;;15.44;54.37;100827.25;4974947;28;20034;-65
2022/04/19 11:24:52;;;;;;;19.63;10.25;;;;;;;15.64;54.13;100820.78;4969364;28;20509;-65
2022/04/19 11:27:20;;;;;;;23.95;11.38;;;;;;;15.58;54.42;100822.19;4972985;28;20058;-64
2022/04/19 11:29:48;;;;;;;19.58;11.70;;;;;;;15.61;54.32;100820.66;4960234;28;20074;-65
2022/04/19 11:32:21;;;;;;;23.00;11.55;;;;;;;15.54;55.34;100814.88;4966811;28;20714;-64
2022/04/19 11:35:04;;;;;;;19.13;10.30;;;;;;;16.10;54.25;100810.41;4972720;28;20057;-64
2022/04/19 11:37:32;;;;;;;;;;;;;;;16.11;53.47;100818.38;4974146;28;20058;-63
2022/04/19 11:48:31;;;;;;;18.35;10.38;;;;;;;16.61;52.16;100809.69;4943360;28;20321;-64
2022/04/19 11:51:08;;;;;;;21.90;10.32;;;;;;;16.64;52.60;100808.97;4953329;28;20043;-64
2022/04/19 11:53:36;;;;;;;16.67;9.93;;;;;;;17.11;51.57;100801.59;4949634;29;20075;-65
2022/04/19 11:56:04;;;;;;;17.83;9.43;;;;;;;17.46;50.68;100797.03;4930218;29;20073;-64
2022/04/19 11:58:33;;;;;;;18.63;10.13;;;;;;;16.79;51.55;100803.47;4954638;28;20269;-65
2022/04/19 12:01:04;;;;;;;17.50;9.05;;;;;;;16.71;51.72;100809.19;4937155;28;20043;-65
2022/04/19 12:03:38;;;;;;;17.98;9.60;;;;;;;16.41;52.42;100810.59;4955586;28;20050;-64
2022/04/19 12:06:10;;;;;;;15.80;9.43;;;;;;;16.36;53.14;100811.66;4955297;28;20055;-65
2022/04/19 12:08:44;;;;;;;15.57;9.07;;;;;;;16.39;53.58;100810.94;4956542;28;20055;-64
2022/04/19 12:11:16;;;;;;;16.23;9.30;;;;;;;16.63;52.58;100810.13;4957419;28;20074;-64
2022/04/19 12:13:44;;;;;;;19.35;10.68;;;;;;;16.14;53.93;100817.72;4937935;29;20047;-65